sensor_id;sensor_type;location;lat;lon;timestamp;pressure;altitude;pressure_sealevel;temperature;humidity
64644;BME280;51056;50.330;7.914;2023-07-24T00:01:45;99794.84;;;17.29;91.65
64644;BME280;51056;50.330;7.914;2023-07-24T00:04:48;99791.25;;;17.39;90.62
64644;BME280;51056;50.330;7.914;2023-07-24T00:07:54;99787.03;;;17.47;89.31
64644;BME280;51056;50.330;7.914;2023-07-24T00:10:57;99781.50;;;17.30;90.29
64644;BME280;51056;50.330;7.914;2023-07-24T00:14:01;99789.59;;;17.09;91.50
64644;BME280;51056;50.330;7.914;2023-07-24T00:17:05;99788.75;;;17.18;91.45
64644;BME280;51056;50.330;7.914;2023-07-24T00:20:09;99785.56;;;17.15;91.36
64644;BME280;51056;50.330;7.914;2023-07-24T00:23:12;99781.81;;;17.08;91.91
64644;BME280;51056;50.330;7.914;2023-07-24T00:26:15;99778.75;;;17.03;92.10
64644;BME280;51056;50.330;7.914;2023-07-24T00:29:19;99775.72;;;16.98;92.80
64644;BME280;51056;50.330;7.914;2023-07-24T00:32:22;99786.41;;;16.96;93.06
64644;BME280;51056;50.330;7.914;2023-07-24T00:35:25;99784.88;;;16.93;93.70
64644;BME280;51056;50.330;7.914;2023-07-24T00:38:29;99774.19;;;16.95;93.43
64644;BME280;51056;50.330;7.914;2023-07-24T00:41:32;99770.69;;;17.04;92.66
64644;BME280;51056;50.330;7.914;2023-07-24T00:44:36;99765.72;;;16.91;93.73
64644;BME280;51056;50.330;7.914;2023-07-24T00:47:41;99763.47;;;16.87;94.38
64644;BME280;51056;50.330;7.914;2023-07-24T00:50:45;99757.91;;;16.90;94.20
64644;BME280;51056;50.330;7.914;2023-07-24T00:53:48;99750.13;;;16.88;94.37
64644;BME280;51056;50.330;7.914;2023-07-24T00:56:52;99746.78;;;16.86;94.80
64644;BME280;51056;50.330;7.914;2023-07-24T00:59:55;99742.34;;;16.87;95.28
64644;BME280;51056;50.330;7.914;2023-07-24T01:03:00;99747.22;;;17.01;94.57
64644;BME280;51056;50.330;7.914;2023-07-24T01:06:04;99743.44;;;17.13;93.33
64644;BME280;51056;50.330;7.914;2023-07-24T01:09:08;99743.44;;;17.04;93.94
64644;BME280;51056;50.330;7.914;2023-07-24T01:15:45;99748.88;;;16.92;94.67
64644;BME280;51056;50.330;7.914;2023-07-24T01:18:53;99735.94;;;16.99;94.39
64644;BME280;51056;50.330;7.914;2023-07-24T01:22:25;99719.38;;;17.07;93.87
64644;BME280;51056;50.330;7.914;2023-07-24T01:25:35;99723.16;;;17.14;93.49
64644;BME280;51056;50.330;7.914;2023-07-24T01:28:41;99709.78;;;17.15;93.13
64644;BME280;51056;50.330;7.914;2023-07-24T01:31:44;99703.69;;;17.05;93.87
64644;BME280;51056;50.330;7.914;2023-07-24T01:34:51;99691.03;;;17.09;93.66
64644;BME280;51056;50.330;7.914;2023-07-24T01:37:56;99684.19;;;17.16;93.66
64644;BME280;51056;50.330;7.914;2023-07-24T01:41:01;99690.88;;;17.20;93.34
64644;BME280;51056;50.330;7.914;2023-07-24T01:44:05;99702.31;;;17.11;93.64
64644;BME280;51056;50.330;7.914;2023-07-24T01:47:08;99701.03;;;17.15;93.36
64644;BME280;51056;50.330;7.914;2023-07-24T01:50:12;99694.38;;;17.11;93.50
64644;BME280;51056;50.330;7.914;2023-07-24T01:53:15;99693.69;;;16.99;94.27
64644;BME280;51056;50.330;7.914;2023-07-24T01:56:18;99695.34;;;17.00;95.20
64644;BME280;51056;50.330;7.914;2023-07-24T01:59:22;99692.00;;;17.08;93.94
64644;BME280;51056;50.330;7.914;2023-07-24T02:02:25;99686.03;;;17.06;94.10
64644;BME280;51056;50.330;7.914;2023-07-24T02:05:29;99684.91;;;17.08;94.39
64644;BME280;51056;50.330;7.914;2023-07-24T02:08:32;99699.53;;;17.03;94.42
64644;BME280;51056;50.330;7.914;2023-07-24T02:11:36;99704.28;;;16.89;95.13
64644;BME280;51056;50.330;7.914;2023-07-24T02:14:39;99699.81;;;17.00;94.54
64644;BME280;51056;50.330;7.914;2023-07-24T02:17:49;99691.34;;;16.96;94.93
64644;BME280;51056;50.330;7.914;2023-07-24T02:20:54;99688.44;;;16.89;95.83
64644;BME280;51056;50.330;7.914;2023-07-24T02:23:57;99683.69;;;16.93;95.86
64644;BME280;51056;50.330;7.914;2023-07-24T02:27:00;99678.94;;;17.06;95.63
64644;BME280;51056;50.330;7.914;2023-07-24T02:30:04;99672.28;;;17.02;95.37
64644;BME280;51056;50.330;7.914;2023-07-24T02:33:07;99678.56;;;16.91;96.13
64644;BME280;51056;50.330;7.914;2023-07-24T02:36:11;99680.06;;;16.94;96.00
64644;BME280;51056;50.330;7.914;2023-07-24T02:39:14;99675.22;;;16.89;96.35
64644;BME280;51056;50.330;7.914;2023-07-24T02:42:18;99674.78;;;16.94;96.51
64644;BME280;51056;50.330;7.914;2023-07-24T02:45:21;99670.75;;;17.00;95.54
64644;BME280;51056;50.330;7.914;2023-07-24T02:48:24;99662.56;;;16.93;96.27
64644;BME280;51056;50.330;7.914;2023-07-24T02:51:29;99665.09;;;16.94;96.14
64644;BME280;51056;50.330;7.914;2023-07-24T02:54:32;99667.31;;;16.89;96.51
64644;BME280;51056;50.330;7.914;2023-07-24T02:57:35;99657.56;;;16.90;96.42
64644;BME280;51056;50.330;7.914;2023-07-24T03:00:39;99658.56;;;16.89;96.88
64644;BME280;51056;50.330;7.914;2023-07-24T03:03:43;99662.31;;;16.86;96.73
64644;BME280;51056;50.330;7.914;2023-07-24T03:06:47;99646.88;;;16.91;96.34
64644;BME280;51056;50.330;7.914;2023-07-24T03:09:50;99633.53;;;16.83;96.83
64644;BME280;51056;50.330;7.914;2023-07-24T03:12:53;99628.53;;;16.80;97.14
64644;BME280;51056;50.330;7.914;2023-07-24T03:15:58;99615.06;;;16.83;96.73
64644;BME280;51056;50.330;7.914;2023-07-24T03:19:01;99614.22;;;16.73;97.18
64644;BME280;51056;50.330;7.914;2023-07-24T03:22:04;99611.06;;;16.79;96.79
64644;BME280;51056;50.330;7.914;2023-07-24T03:25:08;99610.06;;;16.80;96.77
64644;BME280;51056;50.330;7.914;2023-07-24T03:28:19;99626.72;;;16.71;97.09
64644;BME280;51056;50.330;7.914;2023-07-24T03:31:22;99606.16;;;16.74;96.69
64644;BME280;51056;50.330;7.914;2023-07-24T03:34:26;99603.66;;;16.73;96.43
64644;BME280;51056;50.330;7.914;2023-07-24T03:37:29;99599.22;;;16.64;96.97
64644;BME280;51056;50.330;7.914;2023-07-24T03:40:33;99603.97;;;16.60;96.77
64644;BME280;51056;50.330;7.914;2023-07-24T03:43:36;99600.22;;;16.63;95.01
64644;BME280;51056;50.330;7.914;2023-07-24T03:46:39;99590.34;;;16.65;93.98
64644;BME280;51056;50.330;7.914;2023-07-24T03:49:43;99577.69;;;16.59;95.03
64644;BME280;51056;50.330;7.914;2023-07-24T03:52:46;99574.53;;;16.45;95.89
64644;BME280;51056;50.330;7.914;2023-07-24T03:55:50;99563.16;;;16.45;95.92
64644;BME280;51056;50.330;7.914;2023-07-24T03:58:54;99565.25;;;16.41;96.11
64644;BME280;51056;50.330;7.914;2023-07-24T04:01:57;99558.28;;;16.50;95.58
64644;BME280;51056;50.330;7.914;2023-07-24T04:05:02;99559.22;;;16.59;96.02
64644;BME280;51056;50.330;7.914;2023-07-24T04:08:06;99558.66;;;16.65;95.24
64644;BME280;51056;50.330;7.914;2023-07-24T04:11:09;99559.34;;;16.67;93.91
64644;BME280;51056;50.330;7.914;2023-07-24T04:14:15;99571.34;;;16.51;95.39
64644;BME280;51056;50.330;7.914;2023-07-24T04:17:18;99576.88;;;16.58;95.21
64644;BME280;51056;50.330;7.914;2023-07-24T04:20:25;99583.13;;;16.67;94.01
64644;BME280;51056;50.330;7.914;2023-07-24T04:23:28;99585.34;;;16.62;94.38
64644;BME280;51056;50.330;7.914;2023-07-24T04:26:57;99592.03;;;16.56;95.88
64644;BME280;51056;50.330;7.914;2023-07-24T04:29:59;99593.13;;;16.63;96.10
64644;BME280;51056;50.330;7.914;2023-07-24T04:33:05;99589.91;;;16.69;95.40
64644;BME280;51056;50.330;7.914;2023-07-24T04:36:11;99587.03;;;16.63;96.06
64644;BME280;51056;50.330;7.914;2023-07-24T04:39:14;99591.56;;;16.70;95.00
64644;BME280;51056;50.330;7.914;2023-07-24T04:42:17;99593.38;;;16.70;95.43
64644;BME280;51056;50.330;7.914;2023-07-24T04:50:36;99607.56;;;16.69;96.08
64644;BME280;51056;50.330;7.914;2023-07-24T04:53:40;99608.81;;;16.65;96.46
64644;BME280;51056;50.330;7.914;2023-07-24T04:56:43;99615.06;;;16.64;96.89
64644;BME280;51056;50.330;7.914;2023-07-24T04:59:47;99621.88;;;16.66;96.85
64644;BME280;51056;50.330;7.914;2023-07-24T05:02:50;99639.78;;;16.72;96.41
64644;BME280;51056;50.330;7.914;2023-07-24T05:05:54;99634.34;;;16.74;96.74
64644;BME280;51056;50.330;7.914;2023-07-24T05:08:58;99634.25;;;16.85;96.22
64644;BME280;51056;50.330;7.914;2023-07-24T05:12:02;99643.94;;;16.65;98.44
64644;BME280;51056;50.330;7.914;2023-07-24T05:15:07;99629.28;;;16.43;100.00
64644;BME280;51056;50.330;7.914;2023-07-24T05:18:11;99621.75;;;16.29;100.00
64644;BME280;51056;50.330;7.914;2023-07-24T05:21:15;99611.75;;;16.52;100.00
64644;BME280;51056;50.330;7.914;2023-07-24T05:24:19;99602.59;;;16.76;98.74
64644;BME280;51056;50.330;7.914;2023-07-24T05:27:22;99595.31;;;16.87;98.43
64644;BME280;51056;50.330;7.914;2023-07-24T05:30:25;99603.94;;;16.89;98.36
64644;BME280;51056;50.330;7.914;2023-07-24T05:33:30;99615.19;;;16.91;98.14
64644;BME280;51056;50.330;7.914;2023-07-24T05:36:34;99613.19;;;17.03;97.04
64644;BME280;51056;50.330;7.914;2023-07-24T05:39:37;99618.59;;;17.11;97.39
64644;BME280;51056;50.330;7.914;2023-07-24T05:42:40;99615.22;;;17.19;96.88
64644;BME280;51056;50.330;7.914;2023-07-24T05:45:46;99610.44;;;17.32;96.43
64644;BME280;51056;50.330;7.914;2023-07-24T05:48:52;99602.63;;;17.40;95.75
64644;BME280;51056;50.330;7.914;2023-07-24T05:51:56;99599.00;;;17.41;95.52
64644;BME280;51056;50.330;7.914;2023-07-24T05:55:01;99603.69;;;17.48;94.68
64644;BME280;51056;50.330;7.914;2023-07-24T05:58:07;99601.28;;;17.54;94.16
64644;BME280;51056;50.330;7.914;2023-07-24T06:01:12;99599.47;;;17.55;94.26
64644;BME280;51056;50.330;7.914;2023-07-24T06:04:15;99601.59;;;17.51;95.37
64644;BME280;51056;50.330;7.914;2023-07-24T06:07:19;99601.06;;;17.48;95.79
64644;BME280;51056;50.330;7.914;2023-07-24T06:10:22;99597.28;;;17.50;96.14
64644;BME280;51056;50.330;7.914;2023-07-24T06:13:26;99590.44;;;17.57;95.64
64644;BME280;51056;50.330;7.914;2023-07-24T06:16:29;99593.25;;;17.56;95.89
64644;BME280;51056;50.330;7.914;2023-07-24T06:19:32;99598.66;;;17.54;96.12
64644;BME280;51056;50.330;7.914;2023-07-24T06:22:36;99601.41;;;17.62;96.37
64644;BME280;51056;50.330;7.914;2023-07-24T06:25:41;99600.00;;;17.68;95.56
64644;BME280;51056;50.330;7.914;2023-07-24T06:28:45;99592.44;;;17.73;95.49
64644;BME280;51056;50.330;7.914;2023-07-24T06:31:49;99578.25;;;17.74;95.36
64644;BME280;51056;50.330;7.914;2023-07-24T06:34:53;99570.31;;;17.74;96.06
64644;BME280;51056;50.330;7.914;2023-07-24T06:38:17;99563.47;;;17.81;95.50
64644;BME280;51056;50.330;7.914;2023-07-24T06:41:21;99558.41;;;17.88;95.43
64644;BME280;51056;50.330;7.914;2023-07-24T06:44:51;99555.16;;;17.94;94.91
64644;BME280;51056;50.330;7.914;2023-07-24T06:47:55;99562.28;;;17.94;95.02
64644;BME280;51056;50.330;7.914;2023-07-24T06:50:59;99560.00;;;17.99;94.53
64644;BME280;51056;50.330;7.914;2023-07-24T06:54:05;99565.66;;;18.04;94.92
64644;BME280;51056;50.330;7.914;2023-07-24T06:57:09;99567.72;;;18.10;94.30
64644;BME280;51056;50.330;7.914;2023-07-24T07:00:12;99566.13;;;18.17;93.59
64644;BME280;51056;50.330;7.914;2023-07-24T07:03:16;99564.50;;;18.24;93.87
64644;BME280;51056;50.330;7.914;2023-07-24T07:06:19;99565.81;;;18.20;93.83
64644;BME280;51056;50.330;7.914;2023-07-24T07:09:23;99563.25;;;18.10;94.87
64644;BME280;51056;50.330;7.914;2023-07-24T07:12:26;99544.16;;;18.25;95.82
64644;BME280;51056;50.330;7.914;2023-07-24T07:15:30;99552.50;;;18.30;96.08
64644;BME280;51056;50.330;7.914;2023-07-24T07:18:37;99549.72;;;18.31;96.09
64644;BME280;51056;50.330;7.914;2023-07-24T07:21:40;99547.41;;;18.36;95.25
64644;BME280;51056;50.330;7.914;2023-07-24T07:25:20;99550.44;;;18.42;95.67
64644;BME280;51056;50.330;7.914;2023-07-24T07:28:23;99549.97;;;18.46;95.74
64644;BME280;51056;50.330;7.914;2023-07-24T07:31:26;99546.50;;;18.46;95.88
64644;BME280;51056;50.330;7.914;2023-07-24T07:34:31;99552.19;;;18.59;96.01
64644;BME280;51056;50.330;7.914;2023-07-24T07:38:04;99544.16;;;18.69;96.94
64644;BME280;51056;50.330;7.914;2023-07-24T07:41:11;99553.16;;;18.76;96.83
64644;BME280;51056;50.330;7.914;2023-07-24T07:44:39;99558.69;;;18.83;96.63
64644;BME280;51056;50.330;7.914;2023-07-24T07:47:43;99562.00;;;18.85;96.72
64644;BME280;51056;50.330;7.914;2023-07-24T07:50:53;99553.28;;;18.92;96.69
64644;BME280;51056;50.330;7.914;2023-07-24T07:53:58;99538.84;;;18.87;91.18
64644;BME280;51056;50.330;7.914;2023-07-24T07:57:04;99533.09;;;18.99;89.71
64644;BME280;51056;50.330;7.914;2023-07-24T08:00:11;99530.66;;;19.06;79.30
64644;BME280;51056;50.330;7.914;2023-07-24T08:03:17;99532.84;;;19.19;81.22
64644;BME280;51056;50.330;7.914;2023-07-24T08:06:25;99523.13;;;19.36;73.70
64644;BME280;51056;50.330;7.914;2023-07-24T08:09:31;99522.53;;;19.50;70.21
64644;BME280;51056;50.330;7.914;2023-07-24T08:12:35;99518.97;;;19.76;67.12
64644;BME280;51056;50.330;7.914;2023-07-24T08:15:39;99522.97;;;19.88;66.11
64644;BME280;51056;50.330;7.914;2023-07-24T08:18:42;99529.59;;;20.08;62.58
64644;BME280;51056;50.330;7.914;2023-07-24T08:21:46;99525.09;;;20.25;60.54
64644;BME280;51056;50.330;7.914;2023-07-24T08:24:53;99520.28;;;20.29;61.16
64644;BME280;51056;50.330;7.914;2023-07-24T08:27:57;99506.97;;;20.45;58.95
64644;BME280;51056;50.330;7.914;2023-07-24T08:31:04;99524.94;;;20.51;59.38
64644;BME280;51056;50.330;7.914;2023-07-24T08:34:09;99523.59;;;20.63;57.41
64644;BME280;51056;50.330;7.914;2023-07-24T08:37:19;99525.72;;;20.76;56.50
64644;BME280;51056;50.330;7.914;2023-07-24T08:40:59;99515.56;;;20.80;55.73
64644;BME280;51056;50.330;7.914;2023-07-24T08:45:03;99518.38;;;20.86;55.22
64644;BME280;51056;50.330;7.914;2023-07-24T08:49:15;99511.53;;;21.00;54.89
64644;BME280;51056;50.330;7.914;2023-07-24T08:57:18;99506.22;;;21.00;55.65
64644;BME280;51056;50.330;7.914;2023-07-24T09:00:24;99502.34;;;21.11;55.61
64644;BME280;51056;50.330;7.914;2023-07-24T09:13:19;99486.72;;;21.47;55.10
64644;BME280;51056;50.330;7.914;2023-07-24T09:16:26;99483.31;;;21.62;55.01
64644;BME280;51056;50.330;7.914;2023-07-24T09:19:31;99467.78;;;21.73;55.50
64644;BME280;51056;50.330;7.914;2023-07-24T09:22:59;99445.22;;;21.84;54.95
64644;BME280;51056;50.330;7.914;2023-07-24T09:35:17;99423.88;;;22.07;54.65
64644;BME280;51056;50.330;7.914;2023-07-24T09:38:33;99415.03;;;21.92;55.05
64644;BME280;51056;50.330;7.914;2023-07-24T09:41:37;99423.72;;;22.09;55.02
64644;BME280;51056;50.330;7.914;2023-07-24T09:44:40;99422.16;;;22.14;54.69
64644;BME280;51056;50.330;7.914;2023-07-24T09:47:45;99413.84;;;22.17;54.20
64644;BME280;51056;50.330;7.914;2023-07-24T09:50:59;99410.34;;;22.17;54.32
64644;BME280;51056;50.330;7.914;2023-07-24T09:54:06;99411.28;;;22.24;54.71
64644;BME280;51056;50.330;7.914;2023-07-24T09:57:19;99413.41;;;22.28;54.16
64644;BME280;51056;50.330;7.914;2023-07-24T10:00:23;99413.03;;;22.46;54.13
64644;BME280;51056;50.330;7.914;2023-07-24T10:03:30;99421.38;;;22.58;54.16
64644;BME280;51056;50.330;7.914;2023-07-24T10:06:36;99420.94;;;22.69;52.82
64644;BME280;51056;50.330;7.914;2023-07-24T10:09:43;99420.50;;;22.87;52.15
64644;BME280;51056;50.330;7.914;2023-07-24T10:12:48;99436.88;;;22.84;52.09
64644;BME280;51056;50.330;7.914;2023-07-24T10:15:52;99419.25;;;22.83;51.87
64644;BME280;51056;50.330;7.914;2023-07-24T10:18:55;99401.78;;;22.81;51.71
64644;BME280;51056;50.330;7.914;2023-07-24T10:21:58;99388.59;;;23.09;51.27
64644;BME280;51056;50.330;7.914;2023-07-24T10:25:02;99396.88;;;23.35;50.83
64644;BME280;51056;50.330;7.914;2023-07-24T10:28:07;99397.25;;;23.54;50.61
64644;BME280;51056;50.330;7.914;2023-07-24T10:31:25;99384.78;;;23.61;49.25
64644;BME280;51056;50.330;7.914;2023-07-24T10:35:09;99392.63;;;23.62;48.84
64644;BME280;51056;50.330;7.914;2023-07-24T10:38:15;99403.44;;;23.76;48.47
64644;BME280;51056;50.330;7.914;2023-07-24T10:41:19;99405.28;;;23.75;48.30
64644;BME280;51056;50.330;7.914;2023-07-24T10:44:31;99405.13;;;23.62;48.50
64644;BME280;51056;50.330;7.914;2023-07-24T10:47:35;99395.38;;;23.69;49.39
64644;BME280;51056;50.330;7.914;2023-07-24T10:50:42;99397.44;;;23.74;48.65
64644;BME280;51056;50.330;7.914;2023-07-24T10:53:49;99387.16;;;23.71;48.83
64644;BME280;51056;50.330;7.914;2023-07-24T10:57:00;99382.66;;;23.71;48.67
64644;BME280;51056;50.330;7.914;2023-07-24T11:00:06;99382.03;;;23.69;48.95
64644;BME280;51056;50.330;7.914;2023-07-24T11:03:14;99377.31;;;23.50;49.46
64644;BME280;51056;50.330;7.914;2023-07-24T11:06:20;99376.41;;;23.64;49.61
64644;BME280;51056;50.330;7.914;2023-07-24T11:09:37;99388.63;;;23.73;49.06
64644;BME280;51056;50.330;7.914;2023-07-24T11:12:41;99373.50;;;23.80;48.88
64644;BME280;51056;50.330;7.914;2023-07-24T11:15:47;99371.78;;;24.01;48.54
64644;BME280;51056;50.330;7.914;2023-07-24T11:18:51;99367.13;;;24.09;47.98
64644;BME280;51056;50.330;7.914;2023-07-24T11:21:55;99366.78;;;24.19;48.08
64644;BME280;51056;50.330;7.914;2023-07-24T11:24:58;99359.09;;;24.03;48.30
64644;BME280;51056;50.330;7.914;2023-07-24T11:28:05;99353.19;;;23.86;48.20
64644;BME280;51056;50.330;7.914;2023-07-24T11:31:11;99337.13;;;23.79;49.74
64644;BME280;51056;50.330;7.914;2023-07-24T11:34:15;99334.56;;;23.93;49.24
64644;BME280;51056;50.330;7.914;2023-07-24T11:37:20;99333.84;;;23.77;48.49
64644;BME280;51056;50.330;7.914;2023-07-24T11:40:31;99338.66;;;23.67;48.79
64644;BME280;51056;50.330;7.914;2023-07-24T11:43:35;99337.91;;;23.73;48.22
64644;BME280;51056;50.330;7.914;2023-07-24T11:46:39;99320.69;;;23.76;48.01
64644;BME280;51056;50.330;7.914;2023-07-24T11:49:43;99324.72;;;23.93;48.18
64644;BME280;51056;50.330;7.914;2023-07-24T11:52:51;99313.28;;;24.06;47.37
64644;BME280;51056;50.330;7.914;2023-07-24T11:55:59;99309.03;;;24.18;47.71
64644;BME280;51056;50.330;7.914;2023-07-24T11:59:13;99309.63;;;24.48;46.49
64644;BME280;51056;50.330;7.914;2023-07-24T12:02:18;99294.47;;;24.69;46.48
64644;BME280;51056;50.330;7.914;2023-07-24T12:05:22;99282.13;;;24.68;46.23
64644;BME280;51056;50.330;7.914;2023-07-24T12:09:03;99280.63;;;24.45;47.39
64644;BME280;51056;50.330;7.914;2023-07-24T12:12:11;99275.81;;;24.34;48.16
64644;BME280;51056;50.330;7.914;2023-07-24T12:15:19;99266.09;;;24.13;48.55
64644;BME280;51056;50.330;7.914;2023-07-24T12:18:25;99276.53;;;24.08;49.26
64644;BME280;51056;50.330;7.914;2023-07-24T12:21:28;99278.09;;;23.96;49.61
64644;BME280;51056;50.330;7.914;2023-07-24T12:24:32;99262.81;;;23.83;50.24
64644;BME280;51056;50.330;7.914;2023-07-24T12:27:35;99261.59;;;23.79;50.41
64644;BME280;51056;50.330;7.914;2023-07-24T12:30:39;99261.06;;;23.97;50.30
64644;BME280;51056;50.330;7.914;2023-07-24T12:33:42;99264.78;;;24.02;51.31
64644;BME280;51056;50.330;7.914;2023-07-24T12:36:45;99272.22;;;24.07;50.50
64644;BME280;51056;50.330;7.914;2023-07-24T12:39:51;99264.19;;;24.07;50.77
64644;BME280;51056;50.330;7.914;2023-07-24T12:42:54;99264.94;;;23.87;50.32
64644;BME280;51056;50.330;7.914;2023-07-24T12:45:58;99262.78;;;23.76;50.69
64644;BME280;51056;50.330;7.914;2023-07-24T12:49:01;99267.31;;;23.76;50.96
64644;BME280;51056;50.330;7.914;2023-07-24T12:52:06;99266.00;;;23.65;51.33
64644;BME280;51056;50.330;7.914;2023-07-24T12:55:16;99282.78;;;23.59;53.28
64644;BME280;51056;50.330;7.914;2023-07-24T12:58:20;99304.53;;;23.34;59.71
64644;BME280;51056;50.330;7.914;2023-07-24T13:01:24;99311.72;;;22.40;66.48
64644;BME280;51056;50.330;7.914;2023-07-24T13:04:30;99312.94;;;22.37;67.48
64644;BME280;51056;50.330;7.914;2023-07-24T13:07:36;99306.03;;;22.43;70.04
64644;BME280;51056;50.330;7.914;2023-07-24T13:11:06;99305.03;;;22.29;70.41
64644;BME280;51056;50.330;7.914;2023-07-24T13:14:43;99324.75;;;21.90;73.69
64644;BME280;51056;50.330;7.914;2023-07-24T13:17:56;99317.31;;;22.00;73.23
64644;BME280;51056;50.330;7.914;2023-07-24T13:21:03;99316.78;;;22.05;74.41
64644;BME280;51056;50.330;7.914;2023-07-24T13:24:11;99307.06;;;22.27;72.08
64644;BME280;51056;50.330;7.914;2023-07-24T13:27:14;99303.47;;;22.35;71.90
64644;BME280;51056;50.330;7.914;2023-07-24T13:30:21;99297.53;;;22.69;71.56
64644;BME280;51056;50.330;7.914;2023-07-24T13:33:25;99299.34;;;23.26;68.99
64644;BME280;51056;50.330;7.914;2023-07-24T13:36:34;99304.31;;;23.57;65.52
64644;BME280;51056;50.330;7.914;2023-07-24T13:39:40;99290.75;;;23.80;63.15
64644;BME280;51056;50.330;7.914;2023-07-24T13:42:51;99289.28;;;24.54;60.58
64644;BME280;51056;50.330;7.914;2023-07-24T13:45:54;99281.94;;;24.28;60.38
64644;BME280;51056;50.330;7.914;2023-07-24T13:49:03;99284.19;;;23.83;61.41
64644;BME280;51056;50.330;7.914;2023-07-24T13:52:12;99282.00;;;23.65;60.87
64644;BME280;51056;50.330;7.914;2023-07-24T13:55:16;99264.72;;;23.61;60.30
64644;BME280;51056;50.330;7.914;2023-07-24T13:58:20;99249.13;;;24.41;58.80
64644;BME280;51056;50.330;7.914;2023-07-24T14:01:25;99248.03;;;24.90;56.08
64644;BME280;51056;50.330;7.914;2023-07-24T14:04:39;99234.00;;;25.74;53.84
64644;BME280;51056;50.330;7.914;2023-07-24T14:07:49;99214.69;;;26.24;50.78
64644;BME280;51056;50.330;7.914;2023-07-24T14:10:53;99218.25;;;26.11;51.07
64644;BME280;51056;50.330;7.914;2023-07-24T14:13:57;99225.19;;;26.25;49.04
64644;BME280;51056;50.330;7.914;2023-07-24T14:17:01;99216.91;;;27.28;46.97
64644;BME280;51056;50.330;7.914;2023-07-24T14:20:06;99210.59;;;27.59;46.06
64644;BME280;51056;50.330;7.914;2023-07-24T14:23:09;99236.81;;;27.39;44.72
64644;BME280;51056;50.330;7.914;2023-07-24T14:26:13;99235.97;;;28.19;42.00
64644;BME280;51056;50.330;7.914;2023-07-24T14:29:23;99232.22;;;28.20;42.80
64644;BME280;51056;50.330;7.914;2023-07-24T14:32:29;99215.47;;;28.36;41.79
64644;BME280;51056;50.330;7.914;2023-07-24T14:35:33;99203.25;;;30.86;37.72
64644;BME280;51056;50.330;7.914;2023-07-24T14:39:05;99190.94;;;33.30;33.55
64644;BME280;51056;50.330;7.914;2023-07-24T14:42:10;99200.19;;;32.64;33.59
64644;BME280;51056;50.330;7.914;2023-07-24T14:45:17;99202.16;;;31.03;35.75
64644;BME280;51056;50.330;7.914;2023-07-24T14:48:54;99210.56;;;33.47;32.48
64644;BME280;51056;50.330;7.914;2023-07-24T14:52:10;99204.06;;;32.47;33.65
64644;BME280;51056;50.330;7.914;2023-07-24T14:55:20;99212.72;;;32.22;32.40
64644;BME280;51056;50.330;7.914;2023-07-24T14:58:24;99184.13;;;31.43;33.43
64644;BME280;51056;50.330;7.914;2023-07-24T15:01:31;99177.53;;;33.08;31.34
64644;BME280;51056;50.330;7.914;2023-07-24T15:04:34;99174.09;;;31.04;34.14
64644;BME280;51056;50.330;7.914;2023-07-24T15:07:38;99166.69;;;30.32;35.33
64644;BME280;51056;50.330;7.914;2023-07-24T15:10:52;99197.00;;;28.28;38.20
64644;BME280;51056;50.330;7.914;2023-07-24T15:14:09;99201.06;;;28.00;37.93
64644;BME280;51056;50.330;7.914;2023-07-24T15:17:15;99181.16;;;26.14;41.99
64644;BME280;51056;50.330;7.914;2023-07-24T15:20:23;99202.47;;;25.89;42.93
64644;BME280;51056;50.330;7.914;2023-07-24T15:23:30;99212.41;;;24.69;45.17
64644;BME280;51056;50.330;7.914;2023-07-24T15:26:34;99204.84;;;24.79;45.49
64644;BME280;51056;50.330;7.914;2023-07-24T15:29:38;99202.16;;;24.05;47.61
64644;BME280;51056;50.330;7.914;2023-07-24T15:32:43;99206.28;;;24.14;47.98
64644;BME280;51056;50.330;7.914;2023-07-24T15:35:49;99226.53;;;23.88;48.64
64644;BME280;51056;50.330;7.914;2023-07-24T15:38:52;99220.13;;;23.83;48.91
64644;BME280;51056;50.330;7.914;2023-07-24T15:42:10;99222.00;;;23.89;48.56
64644;BME280;51056;50.330;7.914;2023-07-24T15:45:14;99229.25;;;24.02;48.61
64644;BME280;51056;50.330;7.914;2023-07-24T15:48:19;99230.75;;;25.52;44.67
64644;BME280;51056;50.330;7.914;2023-07-24T15:51:26;99236.69;;;24.74;44.25
64644;BME280;51056;50.330;7.914;2023-07-24T15:54:36;99238.31;;;24.55;43.84
64644;BME280;51056;50.330;7.914;2023-07-24T15:58:00;99217.59;;;26.15;40.79
64644;BME280;51056;50.330;7.914;2023-07-24T16:01:19;99236.19;;;26.10;38.24
64644;BME280;51056;50.330;7.914;2023-07-24T16:15:00;99251.38;;;25.18;39.10
64644;BME280;51056;50.330;7.914;2023-07-24T16:33:26;99292.59;;;23.52;46.32
64644;BME280;51056;50.330;7.914;2023-07-24T16:42:19;99290.38;;;22.69;50.41
64644;BME280;51056;50.330;7.914;2023-07-24T16:45:27;99305.91;;;22.87;50.98
64644;BME280;51056;50.330;7.914;2023-07-24T16:48:32;99297.34;;;22.70;51.55
64644;BME280;51056;50.330;7.914;2023-07-24T16:51:35;99297.69;;;23.04;51.06
64644;BME280;51056;50.330;7.914;2023-07-24T16:54:39;99303.97;;;22.60;51.33
64644;BME280;51056;50.330;7.914;2023-07-24T16:57:54;99323.81;;;22.72;50.62
64644;BME280;51056;50.330;7.914;2023-07-24T17:01:01;99328.22;;;22.65;47.91
64644;BME280;51056;50.330;7.914;2023-07-24T17:04:05;99327.22;;;22.66;48.33
64644;BME280;51056;50.330;7.914;2023-07-24T17:07:12;99322.66;;;22.81;47.19
64644;BME280;51056;50.330;7.914;2023-07-24T17:10:17;99317.22;;;22.89;46.78
64644;BME280;51056;50.330;7.914;2023-07-24T17:13:20;99316.66;;;22.58;47.53
64644;BME280;51056;50.330;7.914;2023-07-24T17:16:25;99331.81;;;22.57;47.72
64644;BME280;51056;50.330;7.914;2023-07-24T17:19:29;99332.66;;;22.58;47.26
64644;BME280;51056;50.330;7.914;2023-07-24T17:22:34;99353.69;;;22.52;46.48
64644;BME280;51056;50.330;7.914;2023-07-24T17:25:40;99354.16;;;22.41;46.88
64644;BME280;51056;50.330;7.914;2023-07-24T17:28:46;99368.78;;;22.16;47.19
64644;BME280;51056;50.330;7.914;2023-07-24T17:31:53;99379.75;;;22.13;47.24
64644;BME280;51056;50.330;7.914;2023-07-24T17:34:56;99389.09;;;21.94;47.27